Time;durP1;ratioP1;P1;durP2;ratioP2;P2;SDS_P1;SDS_P2;PMS_P1;PMS_P2;Temp;Humidity;BMP_temperature;BMP_pressure;BME280_temperature;BME280_humidity;BME280_pressure;Samples;Min_cycle;Max_cycle;Signal;HPM_P1;HPM_P2
2022/04/25 00:00:16;;;;;;;;;;;8.60;99.90;;;;;;5127999;28;20183;-70
2022/04/25 00:02:43;;;;;;;;;;;8.60;99.90;;;;;;5127832;28;19920;-70
2022/04/25 00:05:10;;;;;;;;;;;8.70;99.90;;;;;;5127359;28;19920;-71
2022/04/25 00:07:37;;;;;;;;;;;8.70;99.90;;;;;;5127557;28;19927;-70
2022/04/25 00:10:06;;;;;;;;;;;8.70;99.90;;;;;;5127793;28;19941;-70
2022/04/25 00:12:32;;;;;;;;;;;8.70;99.90;;;;;;5126597;28;19926;-70
2022/04/25 00:14:59;;;;;;;;;;;8.70;99.90;;;;;;5127902;28;19919;-72
2022/04/25 00:17:26;;;;;;;;;;;8.70;99.90;;;;;;5127145;28;19919;-71
2022/04/25 00:19:53;;;;;;;;;;;8.70;99.90;;;;;;5127485;28;19983;-71
2022/04/25 00:22:19;;;;;;;;;;;8.70;99.90;;;;;;5127558;28;19928;-71
2022/04/25 00:24:48;;;;;;;;;;;8.60;99.90;;;;;;5127456;27;19919;-71
2022/04/25 00:27:15;;;;;;;;;;;8.60;99.90;;;;;;5126912;27;19926;-70
2022/04/25 00:29:42;;;;;;;;;;;8.60;99.90;;;;;;5127538;28;19926;-70
2022/04/25 00:32:09;;;;;;;;;;;8.60;99.90;;;;;;5126938;28;20204;-70
2022/04/25 00:34:36;;;;;;;;;;;8.60;99.90;;;;;;5127377;27;19919;-71
2022/04/25 00:37:03;;;;;;;;;;;8.70;99.90;;;;;;5126891;28;20149;-71
2022/04/25 00:39:29;;;;;;;;;;;8.60;99.90;;;;;;5127247;28;20123;-70
2022/04/25 00:41:56;;;;;;;;;;;8.60;99.90;;;;;;5126761;28;19926;-70
2022/04/25 00:44:24;;;;;;;;;;;8.60;99.90;;;;;;5127065;28;19923;-71
2022/04/25 00:46:53;;;;;;;;;;;8.60;99.90;;;;;;5126553;28;20238;-71
2022/04/25 00:49:20;;;;;;;;;;;8.50;99.90;;;;;;5127155;28;20145;-71
2022/04/25 00:51:47;;;;;;;;;;;8.60;99.90;;;;;;5126873;27;19919;-71
2022/04/25 00:54:14;;;;;;;;;;;8.50;99.90;;;;;;5126844;28;19919;-71
2022/04/25 00:56:41;;;;;;;;;;;8.50;99.90;;;;;;5126493;28;20123;-72
2022/04/25 00:59:07;;;;;;;;;;;8.50;99.90;;;;;;5126669;27;19924;-71
2022/04/25 01:01:35;;;;;;;;;;;8.50;99.90;;;;;;5126341;28;19920;-71
2022/04/25 01:04:04;;;;;;;;;;;8.50;99.90;;;;;;5126023;28;19930;-70
2022/04/25 01:06:31;;;;;;;;;;;8.50;99.90;;;;;;5126520;28;20138;-72
2022/04/25 01:08:58;;;;;;;;;;;8.50;99.90;;;;;;5126780;28;19919;-72
2022/04/25 01:11:32;;;;;;;;;;;8.50;99.90;;;;;;5140385;22;19920;-92
2022/04/25 01:14:18;;;;;;;;;;;8.50;99.90;;;;;;5100258;28;19939;-92
2022/04/25 01:16:54;;;;;;;;;;;8.50;99.90;;;;;;5101733;28;19915;-92
2022/04/25 01:19:21;;;;;;;;;;;8.30;99.90;;;;;;5101901;28;19909;-93
2022/04/25 01:21:50;;;;;;;;;;;8.60;99.90;;;;;;5101570;28;19972;-93
2022/04/25 01:27:17;;;;;;;;;;;8.50;99.90;;;;;;5101548;28;19919;-91
2022/04/25 01:29:44;;;;;;;;;;;8.40;99.90;;;;;;5101647;28;19936;-91
2022/04/25 01:32:11;;;;;;;;;;;8.50;99.90;;;;;;5101406;28;19909;-92
2022/04/25 01:34:38;;;;;;;;;;;8.40;99.90;;;;;;5101303;28;19972;-93
2022/04/25 01:37:06;;;;;;;;;;;8.40;99.90;;;;;;5100931;28;19908;-93
2022/04/25 01:39:34;;;;;;;;;;;8.40;99.90;;;;;;5101352;28;19968;-92
2022/04/25 01:42:01;;;;;;;;;;;8.60;99.90;;;;;;5101089;28;19936;-92
2022/04/25 01:44:28;;;;;;;;;;;8.40;99.90;;;;;;5101218;28;19913;-92
2022/04/25 01:46:55;;;;;;;;;;;8.40;99.90;;;;;;5100976;28;19908;-91
2022/04/25 01:49:21;;;;;;;;;;;8.30;99.90;;;;;;5100704;28;19988;-93
2022/04/25 01:51:48;;;;;;;;;;;8.30;99.90;;;;;;5100198;28;19913;-93
2022/04/25 01:54:17;;;;;;;;;;;8.20;99.90;;;;;;5101076;28;19976;-92
2022/04/25 01:56:45;;;;;;;;;;;8.20;99.90;;;;;;5100788;28;19913;-92
2022/04/25 01:59:12;;;;;;;;;;;8.20;99.90;;;;;;5100735;28;19943;-92
2022/04/25 02:01:39;;;;;;;;;;;8.10;99.90;;;;;;5100744;28;19908;-92
2022/04/25 02:04:05;;;;;;;;;;;8.10;99.90;;;;;;5100834;28;19972;-92
2022/04/25 02:06:32;;;;;;;;;;;8.10;99.90;;;;;;5100102;28;19912;-93
2022/04/25 02:08:59;;;;;;;;;;;8.10;99.90;;;;;;5100110;28;19979;-92
2022/04/25 02:11:26;;;;;;;;;;;8.10;99.90;;;;;;5100406;28;19964;-91
2022/04/25 02:13:54;;;;;;;;;;;8.10;99.90;;;;;;5100586;28;19943;-93
2022/04/25 02:16:21;;;;;;;;;;;8.20;99.90;;;;;;5100293;28;19930;-92
2022/04/25 02:18:47;;;;;;;;;;;8.20;99.90;;;;;;5100491;28;19914;-93
2022/04/25 02:21:14;;;;;;;;;;;8.10;99.90;;;;;;5100565;28;19915;-91
2022/04/25 02:23:41;;;;;;;;;;;8.10;99.90;;;;;;5100058;28;19975;-91
2022/04/25 02:26:09;;;;;;;;;;;8.10;99.90;;;;;;5099972;28;19915;-92
2022/04/25 02:28:36;;;;;;;;;;;8.20;99.90;;;;;;5100201;28;19912;-91
2022/04/25 02:31:05;;;;;;;;;;;8.10;99.90;;;;;;5100163;28;19940;-92
2022/04/25 02:33:32;;;;;;;;;;;8.30;99.90;;;;;;5100170;28;19912;-92
2022/04/25 02:35:59;;;;;;;;;;;8.20;99.90;;;;;;5099665;28;19935;-93
2022/04/25 02:38:26;;;;;;;;;;;8.10;99.90;;;;;;5100031;28;19908;-93
2022/04/25 02:41:05;;;;;;;;;;;8.20;99.90;;;;;;5100045;28;19943;-92
2022/04/25 02:43:32;;;;;;;;;;;8.10;99.90;;;;;;5098669;28;19912;-92
2022/04/25 02:45:59;;;;;;;;;;;8.20;99.90;;;;;;5098411;28;19913;-92
2022/04/25 02:48:27;;;;;;;;;;;9.10;99.90;;;;;;5098166;27;19912;-92
2022/04/25 02:50:54;;;;;;;;;;;8.00;99.90;;;;;;5098606;28;19913;-93
2022/04/25 02:53:29;;;;;;;;;;;8.00;99.90;;;;;;5098491;28;19971;-92
2022/04/25 02:55:56;;;;;;;;;;;8.00;99.90;;;;;;5098159;28;19932;-92
2022/04/25 02:58:23;;;;;;;;;;;7.90;99.90;;;;;;5098458;28;19991;-90
2022/04/25 03:00:50;;;;;;;;;;;7.90;99.90;;;;;;5098363;27;20013;-91
2022/04/25 03:03:18;;;;;;;;;;;8.00;99.90;;;;;;5098268;27;19940;-91
2022/04/25 03:05:47;;;;;;;;;;;7.90;99.90;;;;;;5098249;27;19980;-91
2022/04/25 03:08:16;;;;;;;;;;;8.60;99.90;;;;;;5098286;27;19912;-92
2022/04/25 03:10:43;;;;;;;;;;;7.90;99.90;;;;;;5098234;27;19943;-92
2022/04/25 03:13:11;;;;;;;;;;;8.00;99.90;;;;;;5097954;28;19920;-92
2022/04/25 03:15:38;;;;;;;;;;;8.00;99.90;;;;;;5098004;28;19913;-93
2022/04/25 03:18:06;;;;;;;;;;;7.80;99.90;;;;;;5098374;28;19908;-91
2022/04/25 03:20:32;;;;;;;;;;;7.90;99.90;;;;;;5097382;28;19912;-92
2022/04/25 03:23:01;;;;;;;;;;;7.90;99.90;;;;;;5097694;28;19919;-92
2022/04/25 03:25:28;;;;;;;;;;;7.90;99.90;;;;;;5097909;28;19908;-92
2022/04/25 03:27:55;;;;;;;;;;;7.90;99.90;;;;;;5098009;28;19932;-92
2022/04/25 03:30:22;;;;;;;;;;;7.80;99.90;;;;;;5098096;28;19932;-92
2022/04/25 03:32:48;;;;;;;;;;;7.80;99.90;;;;;;5097950;28;19968;-93
2022/04/25 03:35:17;;;;;;;;;;;8.00;99.90;;;;;;5097716;27;19983;-93
2022/04/25 03:37:44;;;;;;;;;;;7.80;99.90;;;;;;5098051;27;19914;-92
2022/04/25 03:40:13;;;;;;;;;;;8.50;99.90;;;;;;5098014;27;19925;-93
2022/04/25 03:42:40;;;;;;;;;;;7.80;99.90;;;;;;5097956;27;19964;-93
2022/04/25 03:45:17;;;;;;;;;;;7.80;99.90;;;;;;5097976;27;19947;-92
2022/04/25 03:47:44;;;;;;;;;;;7.80;99.90;;;;;;5097352;27;19912;-91
2022/04/25 03:50:11;;;;;;;;;;;7.80;99.90;;;;;;5097700;28;19924;-92
2022/04/25 03:52:38;;;;;;;;;;;7.80;99.90;;;;;;5097776;28;19947;-92
2022/04/25 03:57:50;;;;;;;;;;;7.70;99.90;;;;;;5098138;28;19936;-93
2022/04/25 04:00:17;;;;;;;;;;;7.80;99.90;;;;;;5097596;28;19948;-92
2022/04/25 04:02:44;;;;;;;;;;;7.80;99.90;;;;;;5097674;28;19977;-92
2022/04/25 04:05:11;;;;;;;;;;;7.80;99.90;;;;;;5097690;28;19920;-92
2022/04/25 04:07:37;;;;;;;;;;;7.60;99.90;;;;;;5097600;28;19936;-92
2022/04/25 04:10:04;;;;;;;;;;;7.80;99.90;;;;;;5096995;28;20044;-92
2022/04/25 04:12:32;;;;;;;;;;;7.80;99.90;;;;;;5095507;28;19976;-89
2022/04/25 04:15:00;;;;;;;;;;;7.80;99.90;;;;;;5096757;28;19909;-91
2022/04/25 04:17:27;;;;;;;;;;;7.80;99.90;;;;;;5097415;28;19908;-92
2022/04/25 04:19:54;;;;;;;;;;;7.80;99.90;;;;;;5096416;28;19952;-92
2022/04/25 04:22:22;;;;;;;;;;;7.80;99.90;;;;;;5097313;28;19915;-91
2022/04/25 04:24:48;;;;;;;;;;;7.80;99.90;;;;;;5097236;27;19936;-91
2022/04/25 04:27:15;;;;;;;;;;;7.70;99.90;;;;;;5097314;28;19947;-92
2022/04/25 04:29:43;;;;;;;;;;;7.80;99.90;;;;;;5097376;28;19916;-92
2022/04/25 04:32:12;;;;;;;;;;;7.80;99.90;;;;;;5100389;28;19939;-93
2022/04/25 04:34:39;;;;;;;;;;;7.80;99.90;;;;;;5101252;28;19915;-92
2022/04/25 04:37:06;;;;;;;;;;;7.80;99.90;;;;;;5100659;27;19928;-93
2022/04/25 04:39:48;;;;;;;;;;;7.80;99.90;;;;;;5101239;27;19938;-94
2022/04/25 04:42:15;;;;;;;;;;;7.90;99.90;;;;;;5101039;27;19919;-93
2022/04/25 04:44:43;;;;;;;;;;;7.60;99.90;;;;;;5101176;27;20010;-93
2022/04/25 04:47:11;;;;;;;;;;;7.70;99.90;;;;;;5100866;27;20124;-94
2022/04/25 04:49:42;;;;;;;;;;;7.80;99.90;;;;;;5100806;27;19924;-94
2022/04/25 04:52:09;;;;;;;;;;;7.80;99.90;;;;;;5101051;27;19969;-94
2022/04/25 04:54:36;;;;;;;;;;;7.80;99.90;;;;;;5100956;27;19977;-93
2022/04/25 04:57:02;;;;;;;;;;;7.80;99.90;;;;;;5100057;27;20012;-93
2022/04/25 04:59:29;;;;;;;;;;;7.70;99.90;;;;;;5100981;27;19932;-93
2022/04/25 05:01:56;;;;;;;;;;;8.40;99.90;;;;;;5099979;27;19908;-93
2022/04/25 05:04:24;;;;;;;;;;;7.90;99.90;;;;;;5100752;28;20202;-93
2022/04/25 05:06:51;;;;;;;;;;;7.70;99.90;;;;;;5100016;28;19931;-92
2022/04/25 05:09:18;;;;;;;;;;;7.70;99.90;;;;;;5099300;28;19920;-91
2022/04/25 05:11:44;;;;;;;;;;;7.70;99.90;;;;;;5099205;28;19920;-92
2022/04/25 05:14:11;;;;;;;;;;;7.90;99.90;;;;;;5098609;28;19976;-92
2022/04/25 05:16:40;;;;;;;;;;;8.10;99.90;;;;;;5097603;28;19921;-91
2022/04/25 05:19:06;;;;;;;;;;;7.90;99.90;;;;;;5097766;28;19908;-92
2022/04/25 05:21:35;;;;;;;;;;;7.80;99.90;;;;;;5097296;28;19988;-92
2022/04/25 05:24:01;;;;;;;;;;;7.80;99.90;;;;;;5097729;28;19946;-91
2022/04/25 05:26:28;;;;;;;;;;;7.80;99.90;;;;;;5099073;27;19971;-92
2022/04/25 05:28:55;;;;;;;;;;;7.80;99.90;;;;;;5100253;27;19908;-92
2022/04/25 05:31:21;;;;;;;;;;;7.80;99.90;;;;;;5099521;28;19927;-91
2022/04/25 05:33:48;;;;;;;;;;;7.80;99.90;;;;;;5098816;28;19955;-93
2022/04/25 05:36:15;;;;;;;;;;;7.80;99.90;;;;;;5098042;27;19979;-92
2022/04/25 05:38:43;;;;;;;;;;;8.00;99.90;;;;;;5093711;28;19992;-91
2022/04/25 05:41:10;;;;;;;;;;;7.80;99.90;;;;;;5097009;28;19935;-91
2022/04/25 05:43:37;;;;;;;;;;;7.90;99.90;;;;;;5098909;28;19927;-93
2022/04/25 05:46:04;;;;;;;;;;;7.90;99.90;;;;;;5099515;28;19981;-93
2022/04/25 05:54:14;;;;;;;;;;;8.00;99.90;;;;;;5100020;27;19931;-93
2022/04/25 05:57:00;;;;;;;;;;;7.90;99.90;;;;;;5099766;27;19924;-91
2022/04/25 05:59:29;;;;;;;;;;;8.00;99.90;;;;;;5099569;27;19924;-94
2022/04/25 06:01:59;;;;;;;;;;;7.90;99.90;;;;;;5096184;27;19915;-92
2022/04/25 06:04:28;;;;;;;;;;;8.00;99.90;;;;;;5088999;27;19916;-91
2022/04/25 06:06:57;;;;;;;;;;;8.00;99.90;;;;;;5079181;28;19913;-91
2022/04/25 06:09:26;;;;;;;;;;;8.00;99.90;;;;;;5079233;28;19936;-92
2022/04/25 06:11:55;;;;;;;;;;;8.00;99.90;;;;;;5078828;28;19919;-92
2022/04/25 06:14:36;;;;;;;;;;;8.30;99.90;;;;;;5094001;27;19920;-91
2022/04/25 06:17:03;;;;;;;;;;;8.10;99.90;;;;;;5082815;27;19912;-92
2022/04/25 06:19:30;;;;;;;;;;;8.10;99.90;;;;;;5079101;28;19936;-91
2022/04/25 06:22:01;;;;;;;;;;;8.10;99.90;;;;;;5078893;28;19948;-93
2022/04/25 06:24:32;;;;;;;;;;;8.10;99.90;;;;;;5083468;27;19912;-91
2022/04/25 06:26:59;;;;;;;;;;;8.10;99.90;;;;;;5098484;27;19960;-92
2022/04/25 06:29:29;;;;;;;;;;;8.10;99.90;;;;;;5098963;27;19916;-92
2022/04/25 06:31:56;;;;;;;;;;;8.20;99.90;;;;;;5098937;27;19939;-91
2022/04/25 06:34:24;;;;;;;;;;;8.20;99.90;;;;;;5098589;27;19963;-91
2022/04/25 06:36:51;;;;;;;;;;;8.10;99.90;;;;;;5097710;27;19908;-90
2022/04/25 06:39:18;;;;;;;;;;;8.50;99.90;;;;;;5098752;27;19912;-92
2022/04/25 06:41:49;;;;;;;;;;;8.30;99.90;;;;;;5098701;27;19932;-92
2022/04/25 06:44:16;;;;;;;;;;;8.30;99.90;;;;;;5098696;27;19912;-92
2022/04/25 06:46:43;;;;;;;;;;;8.40;99.90;;;;;;5098339;27;19908;-91
2022/04/25 06:49:23;;;;;;;;;;;8.80;99.90;;;;;;5098372;27;19984;-91
2022/04/25 06:51:50;;;;;;;;;;;8.50;99.90;;;;;;5098625;27;19918;-92
2022/04/25 06:54:20;;;;;;;;;;;8.30;99.90;;;;;;5098511;27;19908;-91
2022/04/25 06:56:55;;;;;;;;;;;8.60;99.90;;;;;;5098353;27;19932;-94
2022/04/25 06:59:23;;;;;;;;;;;8.30;99.90;;;;;;5098401;27;19931;-93
2022/04/25 07:01:51;;;;;;;;;;;8.50;99.90;;;;;;5097990;27;19923;-94
2022/04/25 07:04:17;;;;;;;;;;;8.40;99.90;;;;;;5109556;22;19929;-70
2022/04/25 07:06:44;;;;;;;;;;;8.40;99.90;;;;;;5083520;28;19932;-69
2022/04/25 07:09:12;;;;;;;;;;;8.40;99.90;;;;;;5083551;28;20119;-70
2022/04/25 07:11:40;;;;;;;;;;;8.40;99.90;;;;;;5097496;22;19920;-68
2022/04/25 07:14:08;;;;;;;;;;;8.50;99.90;;;;;;5050132;28;19949;-68
2022/04/25 07:16:35;;;;;;;;;;;8.50;99.90;;;;;;5045189;28;20216;-68
2022/04/25 07:19:02;;;;;;;;;;;8.60;99.90;;;;;;5063680;28;19959;-68
2022/04/25 07:29:46;;;;;;;;;;;8.60;99.90;;;;;;5063466;28;19962;-69
2022/04/25 07:32:13;;;;;;;;;;;8.70;99.90;;;;;;5063083;28;19925;-69
2022/04/25 07:34:40;;;;;;;;;;;8.80;99.90;;;;;;5063683;28;20089;-68
2022/04/25 07:37:06;;;;;;;;;;;8.80;99.90;;;;;;5060936;28;19984;-67
2022/04/25 07:39:33;;;;;;;;;;;8.80;99.90;;;;;;5043582;28;19931;-68
2022/04/25 07:41:59;;;;;;;;;;;8.90;99.90;;;;;;5060554;28;19927;-69
2022/04/25 07:44:27;;;;;;;;;;;8.90;99.90;;;;;;5063126;28;19921;-68
2022/04/25 07:46:55;;;;;;;;;;;8.90;99.90;;;;;;5062893;28;19920;-68
2022/04/25 07:49:22;;;;;;;;;;;8.90;99.90;;;;;;5063019;28;20231;-68
2022/04/25 07:51:49;;;;;;;;;;;8.90;99.90;;;;;;5062943;28;20275;-68
2022/04/25 07:54:15;;;;;;;;;;;9.00;99.90;;;;;;5062909;28;19921;-67
2022/04/25 07:56:43;;;;;;;;;;;9.00;99.90;;;;;;5062898;28;19920;-68
2022/04/25 07:59:10;;;;;;;;;;;9.00;99.90;;;;;;5063183;28;20155;-69
2022/04/25 08:01:37;;;;;;;;;;;9.00;99.90;;;;;;5062891;28;19928;-68
2022/04/25 08:04:05;;;;;;;;;;;9.00;99.90;;;;;;5062817;28;19924;-68
2022/04/25 08:06:32;;;;;;;;;;;9.00;99.90;;;;;;5061432;28;19989;-67
2022/04/25 08:09:01;;;;;;;;;;;9.10;99.90;;;;;;5067162;28;19921;-67
2022/04/25 08:11:28;;;;;;;;;;;9.10;99.90;;;;;;5066752;28;20188;-68
2022/04/25 08:19:32;;;;;;;;;;;9.40;99.90;;;;;;5062675;28;19916;-67
2022/04/25 08:22:00;;;;;;;;;;;9.40;99.90;;;;;;5066575;28;19920;-68
2022/04/25 08:24:26;;;;;;;;;;;9.40;99.90;;;;;;5066569;28;19927;-68
2022/04/25 08:26:55;;;;;;;;;;;9.50;99.90;;;;;;5065732;28;19920;-67
2022/04/25 08:29:22;;;;;;;;;;;9.60;99.90;;;;;;5066449;28;19921;-67
2022/04/25 08:31:49;;;;;;;;;;;9.70;99.90;;;;;;5066578;28;19921;-68
2022/04/25 08:34:15;;;;;;;;;;;9.70;99.90;;;;;;5060107;28;19999;-68
2022/04/25 08:36:43;;;;;;;;;;;9.90;99.90;;;;;;5058947;28;19921;-68
2022/04/25 08:39:10;;;;;;;;;;;10.00;99.90;;;;;;5046348;28;19921;-67
2022/04/25 08:41:40;;;;;;;;;;;10.10;99.90;;;;;;5046062;28;20231;-71
2022/04/25 08:44:07;;;;;;;;;;;10.20;99.90;;;;;;5046283;28;19925;-68
2022/04/25 08:46:35;;;;;;;;;;;10.30;99.90;;;;;;5046316;28;19944;-68
2022/04/25 08:49:04;;;;;;;;;;;10.40;99.90;;;;;;5056130;28;19921;-68
2022/04/25 08:51:32;;;;;;;;;;;10.50;99.90;;;;;;5046742;28;20000;-68
2022/04/25 08:54:01;;;;;;;;;;;10.50;99.90;;;;;;5045944;28;19943;-67
2022/04/25 08:56:28;;;;;;;;;;;10.60;99.90;;;;;;5045516;28;20139;-70
2022/04/25 08:58:55;;;;;;;;;;;10.70;99.90;;;;;;5046097;28;20234;-68
2022/04/25 09:01:22;;;;;;;;;;;10.70;99.90;;;;;;5057843;28;19921;-68
2022/04/25 09:03:49;;;;;;;;;;;10.80;99.90;;;;;;5065920;28;19921;-68
2022/04/25 09:06:16;;;;;;;;;;;10.80;99.90;;;;;;5065811;28;20179;-68
2022/04/25 09:08:43;;;;;;;;;;;10.80;99.90;;;;;;5045990;28;20231;-67
2022/04/25 09:13:56;;;;;;;;;;;10.90;99.90;;;;;;5065354;28;19967;-68
2022/04/25 09:16:23;;;;;;;;;;;10.90;99.90;;;;;;5065476;28;19984;-67
2022/04/25 09:18:49;;;;;;;;;;;11.00;99.90;;;;;;5064420;28;19959;-68
2022/04/25 09:21:16;;;;;;;;;;;10.90;99.90;;;;;;5065451;28;19927;-68
2022/04/25 09:23:43;;;;;;;;;;;10.90;99.90;;;;;;5065559;28;19928;-68
2022/04/25 09:26:10;;;;;;;;;;;11.00;99.90;;;;;;5064906;28;20089;-67
2022/04/25 09:28:47;;;;;;;;;;;11.30;99.90;;;;;;5065642;28;19921;-67
2022/04/25 09:31:14;;;;;;;;;;;11.10;99.90;;;;;;5064673;28;20124;-67
2022/04/25 09:33:40;;;;;;;;;;;11.30;99.90;;;;;;5059642;28;19921;-68
2022/04/25 09:36:07;;;;;;;;;;;11.40;99.90;;;;;;5064648;28;19987;-70
2022/04/25 09:38:34;;;;;;;;;;;11.50;99.90;;;;;;5065416;28;19924;-68
2022/04/25 09:41:01;;;;;;;;;;;11.60;99.90;;;;;;5064996;28;19924;-67
2022/04/25 09:43:30;;;;;;;;;;;11.60;99.90;;;;;;5065077;28;19921;-67
2022/04/25 09:46:01;;;;;;;;;;;11.70;99.90;;;;;;5064793;28;20212;-68
2022/04/25 09:48:28;;;;;;;;;;;11.70;99.90;;;;;;5064740;28;19920;-68
2022/04/25 09:51:01;;;;;;;;;;;11.70;99.90;;;;;;5064751;28;19921;-67
2022/04/25 09:53:41;;;;;;;;;;;11.70;99.90;;;;;;5064915;28;19930;-67
2022/04/25 09:56:12;;;;;;;;;;;11.80;99.90;;;;;;5044314;28;19921;-67
2022/04/25 09:58:40;;;;;;;;;;;11.80;99.90;;;;;;5043662;28;19921;-71
2022/04/25 10:01:13;;;;;;;;;;;11.80;99.90;;;;;;5054395;28;19937;-70
2022/04/25 10:03:40;;;;;;;;;;;11.80;99.90;;;;;;5064810;28;19921;-68
2022/04/25 10:06:06;;;;;;;;;;;11.70;99.90;;;;;;5065023;28;19927;-68
2022/04/25 10:08:35;;;;;;;;;;;11.70;99.90;;;;;;5064891;28;19925;-70
2022/04/25 10:11:03;;;;;;;;;;;11.80;99.90;;;;;;5064171;28;19966;-68
2022/04/25 10:13:31;;;;;;;;;;;11.90;99.90;;;;;;5064322;28;20136;-71
2022/04/25 10:15:57;;;;;;;;;;;12.00;99.90;;;;;;5063298;28;20093;-69
2022/04/25 10:18:26;;;;;;;;;;;12.00;99.90;;;;;;5063531;28;19921;-68
2022/04/25 10:20:52;;;;;;;;;;;12.00;99.90;;;;;;5064635;28;19920;-68
2022/04/25 10:23:19;;;;;;;;;;;12.10;99.90;;;;;;5065560;28;19924;-68
2022/04/25 10:25:49;;;;;;;;;;;12.30;99.90;;;;;;5063745;28;20145;-69
2022/04/25 10:28:18;;;;;;;;;;;12.30;99.90;;;;;;5063737;28;19958;-68
2022/04/25 10:30:46;;;;;;;;;;;12.30;99.90;;;;;;5064248;28;19920;-69
2022/04/25 10:33:17;;;;;;;;;;;12.40;99.90;;;;;;5064258;28;19920;-68
2022/04/25 10:35:45;;;;;;;;;;;12.40;99.90;;;;;;5064031;28;19921;-68
2022/04/25 10:38:47;;;;;;;;;;;12.50;99.90;;;;;;5064371;28;19943;-68
2022/04/25 10:44:27;;;;;;;;;;;12.50;99.90;;;;;;5064165;28;19923;-68
2022/04/25 10:47:13;;;;;;;;;;;12.50;99.90;;;;;;5063726;28;20238;-68
2022/04/25 10:49:42;;;;;;;;;;;12.50;99.90;;;;;;5064106;28;19920;-68
2022/04/25 10:52:23;;;;;;;;;;;12.60;99.90;;;;;;5064035;28;19921;-69
2022/04/25 10:54:52;;;;;;;;;;;12.60;99.90;;;;;;5063755;28;20231;-68
2022/04/25 10:57:19;;;;;;;;;;;12.80;99.90;;;;;;5063636;28;20161;-70
2022/04/25 10:59:46;;;;;;;;;;;12.80;99.90;;;;;;5064128;28;19927;-69
2022/04/25 11:02:22;;;;;;;;;;;12.80;99.90;;;;;;5064049;28;19920;-70
2022/04/25 11:05:09;;;;;;;;;;;12.80;99.90;;;;;;5063610;28;19948;-70
2022/04/25 11:07:37;;;;;;;;;;;12.80;99.90;;;;;;5063372;28;19924;-69
2022/04/25 11:10:06;;;;;;;;;;;12.80;99.90;;;;;;5062032;28;20488;-68
2022/04/25 11:12:57;;;;;;;;;;;12.80;99.90;;;;;;5062942;28;19921;-69
2022/04/25 11:15:38;;;;;;;;;;;13.00;99.90;;;;;;5050044;28;20108;-68
2022/04/25 11:18:28;;;;;;;;;;;13.40;99.90;;;;;;5061796;28;19984;-69
2022/04/25 11:20:55;;;;;;;;;;;13.90;99.90;;;;;;5063701;28;19928;-68
2022/04/25 11:23:26;;;;;;;;;;;14.10;99.90;;;;;;5063305;28;19927;-69
2022/04/25 11:25:56;;;;;;;;;;;14.20;99.90;;;;;;5062750;28;19921;-69
2022/04/25 11:28:24;;;;;;;;;;;14.60;99.90;;;;;;5061875;28;19925;-70
2022/04/25 11:31:10;;;;;;;;;;;14.90;99.90;;;;;;5063265;28;20116;-68
2022/04/25 11:33:43;;;;;;;;;;;15.30;99.90;;;;;;5063275;28;19927;-69
2022/04/25 11:36:11;;;;;;;;;;;15.60;99.90;;;;;;5063042;28;19921;-71
2022/04/25 11:41:20;;;;;;;;;;;15.80;99.90;;;;;;5009694;28;19917;-68
2022/04/25 11:43:46;;;;;;;;;;;15.70;99.90;;;;;;5043254;28;20109;-69
2022/04/25 11:46:13;;;;;;;;;;;15.50;99.90;;;;;;5043190;28;19921;-68
2022/04/25 11:48:40;;;;;;;;;;;15.20;99.90;;;;;;5052501;28;19924;-69
2022/04/25 11:51:06;;;;;;;;;;;14.90;99.90;;;;;;5062849;28;19928;-68
2022/04/25 11:53:34;;;;;;;;;;;14.80;99.90;;;;;;5062433;28;19935;-68
2022/04/25 11:56:13;;;;;;;;;;;14.60;99.90;;;;;;5061855;28;20120;-68
2022/04/25 11:58:41;;;;;;;;;;;14.50;99.90;;;;;;5063115;28;20122;-69
2022/04/25 12:01:09;;;;;;;;;;;14.40;99.90;;;;;;5063061;28;20126;-68
2022/04/25 12:03:36;;;;;;;;;;;14.30;99.90;;;;;;5061068;28;19947;-68
2022/04/25 12:06:10;;;;;;;;;;;14.30;99.90;;;;;;5061613;28;20143;-69
2022/04/25 12:17:01;;;;;;;;;;;14.70;99.90;;;;;;5022143;28;20253;-71
2022/04/25 12:19:27;;;;;;;;;;;15.10;99.90;;;;;;5042294;28;19921;-68
2022/04/25 12:21:59;;;;;;;;;;;15.40;99.90;;;;;;5044892;28;19921;-68
2022/04/25 12:24:26;;;;;;;;;;;15.50;99.90;;;;;;5062728;28;19959;-70
2022/04/25 12:26:52;;;;;;;;;;;15.40;99.90;;;;;;5062132;28;19987;-69
2022/04/25 12:29:20;;;;;;;;;;;15.20;99.90;;;;;;5062873;28;19921;-69
2022/04/25 12:31:48;;;;;;;;;;;15.10;99.90;;;;;;5062708;28;19921;-70
2022/04/25 12:34:16;;;;;;;;;;;14.80;99.90;;;;;;5062654;28;19928;-67
2022/04/25 12:36:53;;;;;;;;;;;14.70;99.90;;;;;;5048047;28;19943;-68
2022/04/25 12:39:19;;;;;;;;;;;14.60;99.90;;;;;;5042252;28;19921;-68
2022/04/25 12:41:53;;;;;;;;;;;14.60;99.90;;;;;;5062502;28;19928;-68
2022/04/25 12:44:21;;;;;;;;;;;14.50;99.90;;;;;;5051472;28;19925;-68
2022/04/25 12:46:49;;;;;;;;;;;14.30;99.90;;;;;;5042779;28;19921;-68
2022/04/25 12:49:17;;;;;;;;;;;14.30;99.90;;;;;;5042360;28;19925;-71
2022/04/25 12:51:47;;;;;;;;;;;14.30;99.90;;;;;;5076960;28;19967;-69
2022/04/25 12:54:22;;;;;;;;;;;14.20;99.90;;;;;;5060361;28;19921;-67
2022/04/25 12:56:49;;;;;;;;;;;14.30;99.90;;;;;;5066338;28;19927;-68
2022/04/25 12:59:25;;;;;;;;;;;14.40;99.90;;;;;;5066082;28;19928;-68
2022/04/25 13:02:04;;;;;;;;;;;14.70;99.90;;;;;;5065353;28;19984;-68
2022/04/25 13:04:31;;;;;;;;;;;15.10;99.90;;;;;;5066065;28;19929;-67
2022/04/25 13:06:57;;;;;;;;;;;15.30;99.90;;;;;;5065444;28;19967;-68
2022/04/25 13:09:24;;;;;;;;;;;15.30;99.90;;;;;;5059200;28;20136;-68
2022/04/25 13:14:17;;;;;;;;;;;14.90;99.90;;;;;;5174205;22;19923;-93
2022/04/25 13:16:45;;;;;;;;;;;14.80;99.90;;;;;;5151433;27;19971;-92
2022/04/25 13:19:11;;;;;;;;;;;14.80;99.90;;;;;;5162887;27;19907;-92
2022/04/25 13:21:41;;;;;;;;;;;14.80;99.90;;;;;;5163193;27;19914;-93
2022/04/25 13:24:07;;;;;;;;;;;14.80;99.90;;;;;;5142309;28;19972;-92
2022/04/25 13:26:34;;;;;;;;;;;14.90;99.90;;;;;;5142286;28;19942;-93
2022/04/25 13:29:01;;;;;;;;;;;14.90;99.90;;;;;;5153673;27;19911;-92
2022/04/25 13:31:28;;;;;;;;;;;15.00;99.90;;;;;;5162887;27;19908;-92
2022/04/25 13:33:57;;;;;;;;;;;14.90;99.90;;;;;;5162785;27;19970;-92
2022/04/25 13:36:24;;;;;;;;;;;15.20;99.90;;;;;;5162810;27;19907;-92
2022/04/25 13:38:51;;;;;;;;;;;15.30;99.90;;;;;;5161980;27;20149;-92
2022/04/25 13:41:18;;;;;;;;;;;15.30;99.90;;;;;;5148214;27;19912;-91
2022/04/25 13:43:45;;;;;;;;;;;15.30;99.90;;;;;;5140523;27;19920;-91
2022/04/25 13:46:16;;;;;;;;;;;15.20;99.90;;;;;;5140406;28;19912;-92
2022/04/25 13:48:43;;;;;;;;;;;15.00;99.90;;;;;;5140801;27;19912;-93
2022/04/25 13:51:12;;;;;;;;;;;15.10;99.90;;;;;;5140571;28;19911;-93
2022/04/25 13:53:38;;;;;;;;;;;15.20;99.90;;;;;;5158166;27;19969;-92
2022/04/25 13:56:06;;;;;;;;;;;15.40;99.90;;;;;;5160832;27;19919;-92
2022/04/25 13:58:33;;;;;;;;;;;15.60;99.90;;;;;;5160878;27;19917;-90
2022/04/25 14:01:00;;;;;;;;;;;15.90;99.90;;;;;;5160551;27;19912;-92
2022/04/25 14:03:27;;;;;;;;;;;16.30;99.90;;;;;;5159386;27;19959;-90
2022/04/25 14:05:54;;;;;;;;;;;16.60;99.90;;;;;;5140143;27;19934;-90
2022/04/25 14:08:23;;;;;;;;;;;16.80;99.90;;;;;;5140251;28;19938;-91
2022/04/25 14:10:52;;;;;;;;;;;16.70;99.90;;;;;;5139969;28;19920;-91
2022/04/25 14:13:20;;;;;;;;;;;16.80;99.90;;;;;;5145116;27;19912;-90
2022/04/25 14:15:48;;;;;;;;;;;16.90;99.90;;;;;;5159503;27;19929;-90
2022/04/25 14:18:21;;;;;;;;;;;16.80;99.90;;;;;;5160853;27;19925;-92
2022/04/25 14:20:48;;;;;;;;;;;16.70;99.90;;;;;;5160758;27;19927;-91
2022/04/25 14:23:16;;;;;;;;;;;16.50;99.90;;;;;;5159663;27;19935;-91
2022/04/25 14:25:44;;;;;;;;;;;16.50;99.90;;;;;;5160258;27;19931;-91
2022/04/25 14:28:11;;;;;;;;;;;16.60;99.90;;;;;;5153715;27;19974;-91
2022/04/25 14:30:37;;;;;;;;;;;16.80;99.90;;;;;;5139541;28;19908;-91
2022/04/25 14:33:04;;;;;;;;;;;16.90;99.90;;;;;;5139702;28;19908;-90
2022/04/25 14:35:31;;;;;;;;;;;17.00;99.90;;;;;;5134995;27;19919;-90
2022/04/25 14:37:57;;;;;;;;;;;17.30;99.90;;;;;;5136494;28;19907;-91
2022/04/25 14:40:24;;;;;;;;;;;17.40;99.90;;;;;;5139835;27;19976;-91
2022/04/25 14:42:52;;;;;;;;;;;17.40;99.90;;;;;;5159539;27;19911;-91
2022/04/25 14:45:19;;;;;;;;;;;17.20;99.90;;;;;;5160116;27;19942;-90
2022/04/25 14:47:47;;;;;;;;;;;17.00;99.90;;;;;;5159807;27;19987;-91
2022/04/25 14:55:42;;;;;;;;;;;16.20;99.90;;;;;;5143964;27;20122;-66
2022/04/25 14:58:12;;;;;;;;;;;15.90;99.90;;;;;;5144002;27;19925;-66
2022/04/25 15:00:41;;;;;;;;;;;15.60;99.90;;;;;;5143839;27;19923;-66
2022/04/25 15:03:07;;;;;;;;;;;15.50;99.90;;;;;;5132914;27;19920;-67
2022/04/25 15:05:37;;;;;;;;;;;15.30;99.90;;;;;;5115602;28;19919;-66
2022/04/25 15:08:04;;;;;;;;;;;15.20;99.90;;;;;;5122066;28;19920;-66
2022/04/25 15:10:30;;;;;;;;;;;15.00;99.90;;;;;;5121151;28;20211;-66
2022/04/25 15:12:57;;;;;;;;;;;14.90;99.90;;;;;;5118458;28;19926;-66
2022/04/25 15:15:25;;;;;;;;;;;14.80;99.90;;;;;;5123187;28;19920;-65
2022/04/25 15:17:52;;;;;;;;;;;14.60;99.90;;;;;;5115943;28;19957;-66
2022/04/25 15:20:18;;;;;;;;;;;14.50;99.90;;;;;;5121168;28;19924;-66